Time;durP1;ratioP1;P1;durP2;ratioP2;P2;SDS_P1;SDS_P2;PMS_P1;PMS_P2;Temp;Humidity;BMP_temperature;BMP_pressure;BME280_temperature;BME280_humidity;BME280_pressure;Samples;Min_cycle;Max_cycle;Signal;HPM_P1;HPM_P2
2020/12/30 00:00:55;;;;;;;16.42;3.00;;;18.00;99.90;;;;;;5062107;28;20395;-82
2020/12/30 00:03:22;;;;;;;24.10;3.63;;;18.00;99.90;;;;;;5061603;28;20489;-82
2020/12/30 00:05:49;;;;;;;16.88;3.47;;;18.10;99.90;;;;;;5068365;28;20910;-83
2020/12/30 00:08:16;;;;;;;17.73;3.33;;;18.40;99.90;;;;;;5069442;28;20418;-81
2020/12/30 00:10:43;;;;;;;13.73;2.42;;;18.90;99.90;;;;;;5062843;28;20409;-81
2020/12/30 00:13:10;;;;;;;13.43;2.22;;;18.90;99.90;;;;;;5065749;28;20471;-82
2020/12/30 00:15:38;;;;;;;15.82;2.97;;;19.00;99.90;;;;;;5069180;28;20386;-83
2020/12/30 00:18:05;;;;;;;13.23;2.80;;;19.00;99.90;;;;;;5080564;28;20428;-83
2020/12/30 00:20:32;;;;;;;16.95;2.92;;;19.00;99.90;;;;;;5069204;28;20474;-84
2020/12/30 00:22:59;;;;;;;11.52;2.60;;;19.10;99.90;;;;;;5069620;28;20558;-83
2020/12/30 00:25:27;;;;;;;16.05;2.80;;;19.00;99.90;;;;;;5068894;28;20386;-82
2020/12/30 00:27:54;;;;;;;19.52;3.03;;;19.20;99.90;;;;;;5055717;28;20429;-84
2020/12/30 00:30:21;;;;;;;14.90;3.22;;;19.30;99.90;;;;;;5088792;28;20384;-83
2020/12/30 00:32:49;;;;;;;17.13;3.10;;;19.40;99.90;;;;;;5070449;28;20393;-83
2020/12/30 00:35:17;;;;;;;13.93;2.73;;;19.50;99.90;;;;;;5066782;28;20386;-83
2020/12/30 00:37:44;;;;;;;14.18;2.65;;;19.60;99.90;;;;;;5056857;28;20493;-82
2020/12/30 00:40:12;;;;;;;13.90;2.88;;;19.80;99.70;;;;;;5063043;28;20488;-82
2020/12/30 00:42:40;;;;;;;13.13;2.10;;;19.80;99.60;;;;;;5069254;28;20397;-82
2020/12/30 00:45:09;;;;;;;14.70;2.40;;;19.70;99.10;;;;;;5068872;28;20362;-82
2020/12/30 00:47:36;;;;;;;12.73;2.75;;;19.70;98.90;;;;;;5067861;28;20422;-81
2020/12/30 00:50:05;;;;;;;10.03;2.73;;;19.70;99.30;;;;;;5064817;28;20390;-81
2020/12/30 00:52:33;;;;;;;12.60;2.63;;;20.20;99.90;;;;;;5065151;28;20393;-81
2020/12/30 00:55:00;;;;;;;9.88;2.20;;;20.50;97.90;;;;;;5068239;28;20473;-82
2020/12/30 00:57:27;;;;;;;11.20;2.00;;;20.70;97.90;;;;;;5058467;28;20395;-80
2020/12/30 00:59:54;;;;;;;13.15;2.55;;;20.80;96.90;;;;;;5067996;28;20919;-80
2020/12/30 01:02:21;;;;;;;16.15;2.47;;;20.90;97.20;;;;;;5067682;28;20401;-81
2020/12/30 01:04:48;;;;;;;11.63;2.38;;;20.80;96.00;;;;;;5066630;28;20928;-81
2020/12/30 01:07:18;;;;;;;15.82;2.60;;;20.70;97.00;;;;;;5066925;28;20422;-81
2020/12/30 01:09:45;;;;;;;12.60;2.53;;;20.80;98.40;;;;;;5059592;28;20938;-81
2020/12/30 01:12:12;;;;;;;10.00;2.40;;;20.80;97.20;;;;;;5068974;28;20483;-81
2020/12/30 01:14:39;;;;;;;16.98;2.95;;;20.90;96.50;;;;;;5066147;28;22026;-82
2020/12/30 01:17:06;;;;;;;13.80;2.88;;;21.00;96.70;;;;;;5064317;28;20416;-82
2020/12/30 01:19:33;;;;;;;14.80;2.80;;;20.80;96.40;;;;;;5068477;28;20599;-81
2020/12/30 01:22:00;;;;;;;13.32;2.42;;;20.70;96.40;;;;;;5067979;28;20420;-81
2020/12/30 01:24:27;;;;;;;13.40;2.38;;;20.70;95.20;;;;;;5068676;28;21043;-82
2020/12/30 01:26:54;;;;;;;10.80;2.00;;;20.90;94.50;;;;;;5066476;28;20494;-82
2020/12/30 01:29:21;;;;;;;14.13;2.70;;;21.00;95.10;;;;;;5065977;28;20408;-82
2020/12/30 01:31:48;;;;;;;15.68;2.90;;;21.10;94.30;;;;;;5065026;28;20394;-81
2020/12/30 01:34:15;;;;;;;15.50;2.60;;;21.00;94.70;;;;;;5065328;28;20402;-82
2020/12/30 01:36:42;;;;;;;17.65;2.53;;;21.20;95.60;;;;;;5068200;28;20457;-82
2020/12/30 01:39:09;;;;;;;12.48;2.10;;;21.20;95.10;;;;;;5068013;28;20421;-83
2020/12/30 01:41:36;;;;;;;16.25;2.78;;;21.10;94.60;;;;;;5065635;28;20742;-82
2020/12/30 01:44:08;;;;;;;17.13;2.80;;;21.00;94.60;;;;;;5080942;28;20370;-82
2020/12/30 01:46:46;;;;;;;10.30;2.05;;;20.80;94.30;;;;;;5059268;28;20395;-83
2020/12/30 01:49:24;;;;;;;18.88;2.78;;;20.70;95.20;;;;;;5048869;28;20390;-82
2020/12/30 01:51:53;;;;;;;26.53;3.60;;;20.80;96.10;;;;;;5052684;28;20390;-83
2020/12/30 01:54:21;;;;;;;16.55;2.60;;;20.90;95.10;;;;;;5068626;28;20406;-82
2020/12/30 01:56:49;;;;;;;15.20;2.72;;;21.00;94.30;;;;;;5064784;28;20425;-82
2020/12/30 01:59:18;;;;;;;14.73;2.33;;;21.10;94.70;;;;;;5045962;28;20795;-82
2020/12/30 02:01:52;;;;;;;12.60;2.20;;;21.30;93.70;;;;;;5047319;28;20397;-84
2020/12/30 02:04:28;;;;;;;12.18;2.60;;;21.30;93.50;;;;;;5059947;28;20439;-84
2020/12/30 02:06:56;;;;;;;12.25;2.47;;;21.30;93.60;;;;;;5060775;28;20469;-83
2020/12/30 02:09:25;;;;;;;14.27;2.50;;;21.30;92.90;;;;;;5061128;28;20968;-83
2020/12/30 02:11:52;;;;;;;10.27;2.08;;;21.30;92.30;;;;;;5066126;28;20418;-83
2020/12/30 02:14:21;;;;;;;10.95;2.22;;;21.40;93.40;;;;;;5067428;28;20451;-83
2020/12/30 02:16:58;;;;;;;10.05;2.05;;;21.60;91.80;;;;;;5065517;28;20757;-83
2020/12/30 02:19:25;;;;;;;12.05;2.10;;;21.70;90.80;;;;;;5066359;28;20432;-83
2020/12/30 02:21:59;;;;;;;8.35;1.77;;;21.90;92.30;;;;;;5067321;28;20953;-83
2020/12/30 02:24:32;;;;;;;10.67;2.20;;;22.00;92.00;;;;;;5066084;28;20394;-82
2020/12/30 02:27:02;;;;;;;9.70;2.03;;;22.10;89.20;;;;;;5066841;28;20500;-83
2020/12/30 02:29:30;;;;;;;11.20;2.42;;;22.10;90.50;;;;;;5066507;28;20455;-82
2020/12/30 02:31:58;;;;;;;12.60;2.03;;;22.10;89.40;;;;;;5067675;28;20382;-82
2020/12/30 02:34:25;;;;;;;8.85;2.00;;;21.90;89.30;;;;;;5066459;28;22111;-82
2020/12/30 02:36:53;;;;;;;11.43;2.20;;;21.80;86.50;;;;;;5066926;28;20432;-81
2020/12/30 02:39:20;;;;;;;10.38;1.90;;;21.50;87.80;;;;;;5066603;28;20407;-82
2020/12/30 02:41:49;;;;;;;13.85;2.22;;;21.30;90.50;;;;;;5066916;28;20374;-81
2020/12/30 02:44:17;;;;;;;12.60;2.30;;;21.20;90.60;;;;;;5066103;28;20440;-82
2020/12/30 02:46:44;;;;;;;15.15;2.40;;;21.20;91.20;;;;;;5066211;28;20884;-82
2020/12/30 02:49:11;;;;;;;13.60;2.40;;;21.20;91.20;;;;;;5067471;28;20409;-82
2020/12/30 02:51:45;;;;;;;8.05;1.58;;;21.00;90.90;;;;;;5066889;28;20405;-82
2020/12/30 02:54:12;;;;;;;11.13;2.40;;;20.90;91.10;;;;;;5066733;28;20414;-81
2020/12/30 02:56:39;;;;;;;10.32;2.03;;;20.90;91.20;;;;;;5066488;28;20398;-82
2020/12/30 02:59:07;;;;;;;12.10;1.73;;;21.00;90.80;;;;;;5070834;28;20455;-82
2020/12/30 03:01:34;;;;;;;10.98;1.65;;;21.00;90.40;;;;;;5071440;28;20385;-81
2020/12/30 03:04:01;;;;;;;10.95;1.98;;;21.00;90.90;;;;;;5071501;28;20463;-82
2020/12/30 03:06:28;;;;;;;8.35;2.22;;;21.00;90.80;;;;;;5071014;28;20385;-81
2020/12/30 03:08:55;;;;;;;10.07;2.30;;;20.90;90.90;;;;;;5071139;28;20495;-82
2020/12/30 03:11:24;;;;;;;10.85;2.00;;;20.90;92.20;;;;;;5070711;28;20469;-81
2020/12/30 03:13:51;;;;;;;10.85;2.13;;;21.00;92.10;;;;;;5070164;28;21047;-81
2020/12/30 03:16:19;;;;;;;11.05;1.80;;;21.10;90.00;;;;;;5070394;28;20402;-81
2020/12/30 03:18:47;;;;;;;8.38;1.60;;;21.20;90.70;;;;;;5070996;28;20398;-82
2020/12/30 03:21:14;;;;;;;7.45;1.38;;;21.30;91.40;;;;;;5068405;28;20404;-81
2020/12/30 03:23:41;;;;;;;8.17;1.40;;;21.40;83.10;;;;;;5068340;28;20401;-81
2020/12/30 03:26:08;;;;;;;8.18;1.65;;;21.60;84.40;;;;;;5070791;28;20741;-81
2020/12/30 03:28:35;;;;;;;8.40;1.50;;;21.60;85.90;;;;;;5069589;28;20410;-82
2020/12/30 03:31:03;;;;;;;10.02;1.65;;;21.80;86.40;;;;;;5059679;28;20395;-82
2020/12/30 03:33:30;;;;;;;7.67;1.70;;;21.90;87.10;;;;;;5067117;28;20398;-82
2020/12/30 03:35:57;;;;;;;11.40;2.17;;;21.90;86.70;;;;;;5061075;28;20862;-82
2020/12/30 03:38:24;;;;;;;10.82;1.70;;;22.00;90.10;;;;;;5070688;28;20390;-80
2020/12/30 03:40:51;;;;;;;8.25;1.73;;;22.00;85.70;;;;;;5070956;28;20386;-81
2020/12/30 03:43:18;;;;;;;9.68;1.30;;;21.90;84.10;;;;;;5068265;28;20436;-81
2020/12/30 03:45:45;;;;;;;10.35;1.90;;;21.80;83.00;;;;;;5067610;28;20401;-82
2020/12/30 03:48:12;;;;;;;7.20;1.38;;;21.70;87.20;;;;;;5068819;28;20472;-82
2020/12/30 03:50:39;;;;;;;8.50;1.90;;;21.60;83.50;;;;;;5070517;28;20385;-82
2020/12/30 03:53:06;;;;;;;9.10;1.85;;;21.50;87.70;;;;;;5070811;28;20470;-81
2020/12/30 03:55:33;;;;;;;8.20;1.90;;;21.50;87.70;;;;;;5061031;28;20436;-82
2020/12/30 03:58:00;;;;;;;12.13;2.30;;;21.50;89.30;;;;;;5061958;28;20392;-83
2020/12/30 04:00:27;;;;;;;7.90;1.80;;;21.50;89.30;;;;;;5056688;28;20447;-81
2020/12/30 04:02:54;;;;;;;9.32;1.50;;;21.30;86.80;;;;;;5064415;28;21104;-81
2020/12/30 04:05:21;;;;;;;10.68;1.70;;;21.30;85.80;;;;;;5064458;28;20438;-81
2020/12/30 04:07:49;;;;;;;8.63;1.50;;;21.30;88.00;;;;;;5065807;28;20405;-82
2020/12/30 04:10:17;;;;;;;8.48;1.65;;;21.40;89.80;;;;;;5058381;28;20472;-81
2020/12/30 04:12:43;;;;;;;11.63;2.00;;;21.30;90.10;;;;;;5060390;28;20378;-81
2020/12/30 04:15:10;;;;;;;12.30;1.92;;;21.30;90.50;;;;;;5048876;28;20375;-81
2020/12/30 04:17:37;;;;;;;12.13;1.95;;;21.10;90.50;;;;;;5063665;28;20391;-81
2020/12/30 04:20:05;;;;;;;6.70;1.53;;;21.10;89.00;;;;;;5057898;28;20419;-81
2020/12/30 04:22:32;;;;;;;9.07;1.98;;;21.10;88.70;;;;;;5052440;28;20374;-82
2020/12/30 04:24:59;;;;;;;11.45;2.03;;;21.00;89.40;;;;;;5060854;28;20409;-81
2020/12/30 04:27:26;;;;;;;11.43;1.85;;;20.90;90.90;;;;;;5060905;28;20445;-81
2020/12/30 04:29:53;;;;;;;10.25;1.90;;;20.90;90.70;;;;;;5059357;28;20429;-81
2020/12/30 04:32:20;;;;;;;11.20;1.88;;;20.90;90.40;;;;;;5058247;28;20485;-81
2020/12/30 04:34:47;;;;;;;13.40;2.07;;;20.80;90.40;;;;;;5064744;28;20972;-81
2020/12/30 04:37:14;;;;;;;7.97;1.50;;;20.90;91.20;;;;;;5060961;28;20387;-81
2020/12/30 04:39:41;;;;;;;11.65;1.80;;;20.90;89.50;;;;;;5050942;28;20923;-81
2020/12/30 04:42:13;;;;;;;10.13;2.15;;;20.90;90.30;;;;;;5051626;28;21792;-82
2020/12/30 04:44:45;;;;;;;9.93;1.70;;;20.80;90.40;;;;;;5077809;28;20408;-81
2020/12/30 04:47:13;;;;;;;9.20;2.15;;;20.70;90.50;;;;;;5066409;28;21112;-81
2020/12/30 04:49:40;;;;;;;9.25;1.70;;;20.60;91.10;;;;;;5061125;28;20388;-81
2020/12/30 04:52:07;;;;;;;11.18;1.92;;;20.50;91.20;;;;;;5046403;28;20360;-83
2020/12/30 04:54:35;;;;;;;9.50;2.00;;;20.50;91.40;;;;;;5061746;28;20383;-81
2020/12/30 04:57:03;;;;;;;12.20;1.98;;;20.40;91.40;;;;;;5046132;28;20399;-81
2020/12/30 04:59:40;;;;;;;11.60;2.00;;;20.30;90.70;;;;;;5063319;28;20402;-81
2020/12/30 05:02:09;;;;;;;12.40;2.13;;;20.20;90.70;;;;;;5066999;28;20394;-81
2020/12/30 05:04:38;;;;;;;13.27;2.03;;;20.20;91.60;;;;;;5068256;28;20382;-82
2020/12/30 05:07:08;;;;;;;10.82;2.17;;;20.10;92.30;;;;;;5067766;28;20394;-81
2020/12/30 05:09:39;;;;;;;12.18;1.90;;;20.20;92.40;;;;;;5062200;28;20900;-81
2020/12/30 05:12:18;;;;;;;9.55;2.00;;;20.10;93.40;;;;;;5068372;28;20394;-81
2020/12/30 05:14:46;;;;;;;12.45;2.30;;;20.10;93.60;;;;;;5057017;28;20487;-81
2020/12/30 05:17:15;;;;;;;11.87;2.50;;;20.10;94.20;;;;;;5069051;28;20848;-81
2020/12/30 05:19:46;;;;;;;14.88;2.13;;;20.00;93.60;;;;;;5056935;28;20471;-81
2020/12/30 05:22:20;;;;;;;11.02;2.03;;;20.00;93.80;;;;;;5057133;28;20747;-81
2020/12/30 05:24:49;;;;;;;13.10;2.10;;;20.00;94.20;;;;;;5056306;28;20441;-80
2020/12/30 05:27:18;;;;;;;13.85;2.35;;;20.00;93.70;;;;;;5030652;28;20783;-82
2020/12/30 05:29:50;;;;;;;14.07;2.58;;;19.90;93.90;;;;;;5054585;28;20885;-82
2020/12/30 05:32:18;;;;;;;14.43;2.03;;;20.00;93.50;;;;;;5066150;28;20406;-81
2020/12/30 05:34:46;;;;;;;14.30;2.13;;;19.90;93.80;;;;;;5052930;28;20419;-81
2020/12/30 05:37:17;;;;;;;16.15;2.80;;;19.90;94.40;;;;;;5063466;28;20493;-82
2020/12/30 05:39:45;;;;;;;12.82;2.20;;;19.90;94.60;;;;;;5064587;28;20398;-82
2020/12/30 05:42:18;;;;;;;11.40;1.80;;;19.90;94.60;;;;;;5048069;28;20390;-81
2020/12/30 05:44:48;;;;;;;15.68;2.45;;;19.90;94.70;;;;;;5068381;28;20398;-81
2020/12/30 05:47:19;;;;;;;14.15;2.67;;;19.90;94.20;;;;;;5072572;28;20386;-81
2020/12/30 05:49:48;;;;;;;16.02;2.78;;;19.90;94.70;;;;;;5070787;28;20421;-81
2020/12/30 05:52:21;;;;;;;14.63;2.17;;;19.90;94.20;;;;;;5070100;28;20855;-81
2020/12/30 05:55:02;;;;;;;8.75;1.70;;;19.90;93.90;;;;;;5068806;28;20399;-81
2020/12/30 05:57:33;;;;;;;14.63;2.10;;;19.90;93.30;;;;;;5069309;28;20393;-81
2020/12/30 06:00:09;;;;;;;9.90;2.20;;;19.80;93.30;;;;;;5067153;28;20912;-80
2020/12/30 06:02:47;;;;;;;12.05;1.83;;;19.80;93.90;;;;;;5057218;28;20373;-80
2020/12/30 06:05:24;;;;;;;10.40;1.65;;;19.80;93.60;;;;;;5064393;28;20468;-82
2020/12/30 06:07:56;;;;;;;13.32;2.17;;;19.80;93.40;;;;;;5051743;28;20770;-81
2020/12/30 06:10:25;;;;;;;14.48;2.05;;;19.80;93.70;;;;;;5053064;28;20414;-81
2020/12/30 06:12:52;;;;;;;11.93;1.88;;;19.80;94.00;;;;;;5051906;28;20384;-81
2020/12/30 06:15:30;;;;;;;14.88;2.00;;;19.80;93.90;;;;;;5057390;28;20413;-81
2020/12/30 06:18:05;;;;;;;11.73;2.00;;;19.70;94.40;;;;;;5060003;28;20718;-81
2020/12/30 06:20:36;;;;;;;9.50;2.05;;;19.70;94.50;;;;;;5067595;28;20389;-81
2020/12/30 06:23:15;;;;;;;11.20;2.40;;;19.60;94.60;;;;;;5070312;28;20377;-82
2020/12/30 06:25:44;;;;;;;14.67;2.40;;;19.50;94.90;;;;;;5070796;28;20385;-82
2020/12/30 06:28:15;;;;;;;11.40;2.20;;;19.50;95.00;;;;;;5071809;28;20402;-81
2020/12/30 06:30:44;;;;;;;10.98;1.92;;;19.50;94.70;;;;;;5064501;28;20376;-81
2020/12/30 06:33:12;;;;;;;9.57;1.90;;;19.50;95.10;;;;;;5052171;28;20387;-82
2020/12/30 06:35:41;;;;;;;12.50;2.22;;;19.50;95.50;;;;;;5051710;28;20463;-81
2020/12/30 06:38:28;;;;;;;12.25;1.98;;;19.50;95.50;;;;;;5051585;28;20758;-81
2020/12/30 06:40:55;;;;;;;11.05;2.08;;;19.50;95.30;;;;;;5059407;28;20387;-81
2020/12/30 06:43:45;;;;;;;14.60;2.30;;;19.50;95.40;;;;;;5070800;28;20378;-81
2020/12/30 06:46:35;;;;;;;15.75;1.90;;;19.50;95.20;;;;;;5057673;28;21290;-83
2020/12/30 06:49:05;;;;;;;9.25;2.15;;;19.50;95.20;;;;;;5060106;28;20471;-82
2020/12/30 06:51:43;;;;;;;8.63;1.97;;;19.50;94.10;;;;;;5068086;28;20526;-83
2020/12/30 06:54:10;;;;;;;12.60;2.15;;;19.50;93.80;;;;;;5071359;28;20877;-83
2020/12/30 06:56:45;;;;;;;10.43;1.95;;;19.50;94.50;;;;;;5070510;28;20420;-83
2020/12/30 06:59:17;;;;;;;9.02;1.75;;;19.50;93.90;;;;;;5070836;28;20406;-80
2020/12/30 07:01:58;;;;;;;13.75;1.80;;;19.50;94.50;;;;;;5071191;28;20397;-81
2020/12/30 07:04:26;;;;;;;11.88;2.15;;;19.50;94.30;;;;;;5068150;28;20397;-81
2020/12/30 07:06:54;;;;;;;19.73;2.42;;;19.50;94.60;;;;;;5068780;28;20479;-81
2020/12/30 07:09:40;;;;;;;11.45;1.95;;;19.50;94.60;;;;;;5070257;28;20402;-82
2020/12/30 07:12:08;;;;;;;10.68;2.00;;;19.50;94.30;;;;;;5061209;28;20487;-82
2020/12/30 07:14:37;;;;;;;10.27;1.90;;;19.50;93.80;;;;;;5066807;28;20374;-82
2020/12/30 07:17:08;;;;;;;11.35;1.90;;;19.50;94.10;;;;;;5068830;28;20747;-82
2020/12/30 07:19:37;;;;;;;12.33;1.90;;;19.50;93.80;;;;;;5070757;28;20872;-83
2020/12/30 07:22:07;;;;;;;12.27;2.42;;;19.50;94.20;;;;;;5069276;28;20445;-81
2020/12/30 07:24:57;;;;;;;7.75;1.67;;;19.50;94.40;;;;;;5068667;28;20473;-83
2020/12/30 07:27:29;;;;;;;8.88;1.45;;;19.40;93.30;;;;;;5070861;28;20801;-82
2020/12/30 07:29:56;;;;;;;9.93;1.40;;;19.40;93.30;;;;;;5070688;28;20381;-83
2020/12/30 07:32:23;;;;;;;9.63;1.73;;;19.30;93.40;;;;;;5069191;28;20397;-82
2020/12/30 07:34:53;;;;;;;8.80;1.80;;;19.30;93.10;;;;;;5069969;28;20417;-83
2020/12/30 07:37:21;;;;;;;7.63;1.55;;;19.30;93.60;;;;;;5064762;28;20904;-81
2020/12/30 07:39:49;;;;;;;8.55;1.75;;;19.30;93.20;;;;;;5063658;28;20398;-80
2020/12/30 07:42:23;;;;;;;11.13;1.37;;;19.30;93.20;;;;;;5064889;28;20472;-81
2020/12/30 07:44:58;;;;;;;10.35;1.83;;;19.30;92.80;;;;;;5069477;28;20398;-81
2020/12/30 07:47:28;;;;;;;7.90;1.83;;;19.30;93.20;;;;;;5069412;28;20865;-83
2020/12/30 07:50:03;;;;;;;9.43;1.63;;;19.30;93.20;;;;;;5069457;28;20398;-82
2020/12/30 07:52:31;;;;;;;10.68;2.40;;;19.20;92.80;;;;;;5068841;28;20394;-82
2020/12/30 07:54:57;;;;;;;10.85;1.42;;;19.30;93.20;;;;;;5068817;28;20421;-82
2020/12/30 07:57:25;;;;;;;8.75;1.77;;;19.30;93.40;;;;;;5067649;28;20389;-81
2020/12/30 07:59:52;;;;;;;9.00;1.63;;;19.30;93.30;;;;;;5067326;28;20397;-82
2020/12/30 08:02:20;;;;;;;10.57;1.73;;;19.30;93.60;;;;;;5067981;28;20432;-82
2020/12/30 08:04:59;;;;;;;9.93;1.67;;;19.30;93.30;;;;;;5070289;28;20460;-82
2020/12/30 08:07:29;;;;;;;10.40;1.70;;;19.20;93.00;;;;;;5069464;28;20401;-82
2020/12/30 08:09:56;;;;;;;9.70;1.55;;;19.20;93.40;;;;;;5069738;28;20397;-84
2020/12/30 08:12:24;;;;;;;7.72;1.58;;;19.20;93.80;;;;;;5069655;28;20367;-82
2020/12/30 08:14:53;;;;;;;9.65;1.48;;;19.20;93.50;;;;;;5070288;28;20465;-81
2020/12/30 08:17:22;;;;;;;10.13;1.43;;;19.20;93.50;;;;;;5065437;28;20403;-82
2020/12/30 08:19:51;;;;;;;11.80;1.77;;;19.20;93.60;;;;;;5063029;28;20402;-82
2020/12/30 08:22:23;;;;;;;9.40;1.77;;;19.20;93.70;;;;;;5059507;28;20728;-81
2020/12/30 08:24:55;;;;;;;12.00;1.75;;;19.20;94.00;;;;;;5050472;28;20505;-82
2020/12/30 08:27:29;;;;;;;10.43;1.92;;;19.10;93.90;;;;;;5058167;28;20413;-82
2020/12/30 08:29:58;;;;;;;9.70;1.70;;;19.10;93.70;;;;;;5058507;28;20855;-81
2020/12/30 08:32:44;;;;;;;12.27;1.83;;;19.10;93.60;;;;;;5060892;28;20413;-81
2020/12/30 08:35:28;;;;;;;10.93;1.92;;;19.10;94.00;;;;;;5066445;28;20426;-81
2020/12/30 08:38:24;;;;;;;11.40;1.83;;;19.00;94.00;;;;;;5057638;28;20412;-81
2020/12/30 08:40:58;;;;;;;10.18;1.98;;;19.00;94.30;;;;;;5054213;28;20889;-81
2020/12/30 08:43:46;;;;;;;9.88;1.70;;;19.00;94.40;;;;;;5060682;28;20405;-81
2020/12/30 08:46:23;;;;;;;11.32;1.70;;;18.90;94.40;;;;;;5056918;28;20383;-81
2020/12/30 08:48:51;;;;;;;9.93;1.60;;;18.90;94.30;;;;;;5057677;28;20424;-81
2020/12/30 08:51:44;;;;;;;9.13;1.57;;;18.90;94.30;;;;;;5069525;28;20733;-80
2020/12/30 08:54:16;;;;;;;9.60;1.55;;;18.90;94.40;;;;;;5066152;28;20729;-81
2020/12/30 08:56:44;;;;;;;10.63;1.50;;;18.80;94.50;;;;;;5069262;28;20715;-81
2020/12/30 08:59:23;;;;;;;9.30;1.63;;;18.90;94.70;;;;;;5065355;28;20399;-81
2020/12/30 09:01:50;;;;;;;10.50;1.60;;;18.80;94.70;;;;;;5065109;28;20782;-81
2020/12/30 09:04:17;;;;;;;8.20;1.52;;;18.80;94.50;;;;;;5072399;28;20494;-81
2020/12/30 09:06:53;;;;;;;7.93;1.48;;;18.80;94.60;;;;;;5063648;28;20782;-82
2020/12/30 09:09:20;;;;;;;6.35;1.20;;;18.80;94.60;;;;;;5069797;28;20414;-81
2020/12/30 09:11:50;;;;;;;12.25;1.75;;;18.80;94.60;;;;;;5070521;28;20409;-82
2020/12/30 09:14:22;;;;;;;9.13;1.50;;;18.80;94.80;;;;;;5080311;28;20585;-82
2020/12/30 09:16:57;;;;;;;9.52;1.77;;;18.80;94.60;;;;;;5068039;28;20417;-83
2020/12/30 09:19:25;;;;;;;10.07;1.48;;;18.80;94.60;;;;;;5071687;28;20401;-82
2020/12/30 09:21:52;;;;;;;11.63;1.92;;;18.80;94.60;;;;;;5071594;28;20393;-82
2020/12/30 09:24:20;;;;;;;8.10;1.25;;;18.80;94.80;;;;;;5064112;28;20395;-82
2020/12/30 09:26:47;;;;;;;8.55;1.90;;;18.70;95.10;;;;;;5061807;28;20401;-82
2020/12/30 09:29:21;;;;;;;8.77;1.35;;;18.70;95.00;;;;;;5064241;28;20464;-81
2020/12/30 09:31:55;;;;;;;10.50;2.10;;;18.60;94.90;;;;;;5067694;28;20412;-81
2020/12/30 09:34:26;;;;;;;9.63;1.80;;;18.70;94.60;;;;;;5062431;28;20406;-81
2020/12/30 09:36:58;;;;;;;8.35;1.80;;;18.70;94.80;;;;;;5053928;28;20684;-82
2020/12/30 09:39:28;;;;;;;7.72;1.42;;;18.70;94.70;;;;;;5064092;28;20398;-83
2020/12/30 09:42:04;;;;;;;12.23;2.10;;;18.70;94.70;;;;;;5074698;28;21603;-83
2020/12/30 09:44:31;;;;;;;10.63;1.80;;;18.70;94.80;;;;;;5072021;28;20402;-85
2020/12/30 09:46:59;;;;;;;9.93;1.95;;;18.70;94.90;;;;;;5059770;28;20411;-83
2020/12/30 09:49:27;;;;;;;11.02;2.00;;;18.60;95.10;;;;;;5067605;28;20397;-81
2020/12/30 09:51:57;;;;;;;10.85;1.48;;;18.60;95.30;;;;;;5059229;28;20417;-82
2020/12/30 09:54:26;;;;;;;9.80;1.67;;;18.60;95.60;;;;;;5057671;28;20802;-81
2020/12/30 09:56:53;;;;;;;9.40;2.03;;;18.50;95.70;;;;;;5058914;28;20389;-83
2020/12/30 09:59:23;;;;;;;10.50;1.50;;;18.50;95.70;;;;;;5061662;28;20794;-82
2020/12/30 10:01:51;;;;;;;10.80;1.50;;;18.40;95.70;;;;;;5060532;28;20386;-82
2020/12/30 10:04:21;;;;;;;11.52;1.65;;;18.40;95.80;;;;;;5056073;28;20382;-84
2020/12/30 10:06:49;;;;;;;8.95;2.00;;;18.30;96.00;;;;;;5065270;28;20501;-82
2020/12/30 10:09:21;;;;;;;8.95;1.83;;;18.30;95.90;;;;;;5063650;28;20544;-84
2020/12/30 10:11:51;;;;;;;11.60;2.10;;;18.30;96.10;;;;;;5063011;28;20417;-83
2020/12/30 10:14:23;;;;;;;8.85;1.33;;;18.20;96.10;;;;;;5065051;28;20416;-82
2020/12/30 10:16:50;;;;;;;6.57;1.52;;;18.20;96.10;;;;;;5064710;28;20397;-82
2020/12/30 10:19:21;;;;;;;11.95;1.80;;;18.20;96.20;;;;;;5065423;28;20381;-84
2020/12/30 10:22:03;;;;;;;8.07;1.65;;;18.20;96.20;;;;;;5064389;28;20835;-82
2020/12/30 10:24:34;;;;;;;14.10;1.77;;;18.20;96.40;;;;;;5063018;28;20401;-83
2020/12/30 10:27:04;;;;;;;8.52;1.65;;;18.10;96.80;;;;;;5062824;28;20410;-82
2020/12/30 10:29:34;;;;;;;11.65;2.05;;;18.10;96.50;;;;;;5064784;28;20502;-84
2020/12/30 10:32:01;;;;;;;11.80;1.80;;;18.10;96.60;;;;;;5059215;28;20436;-82
2020/12/30 10:34:28;;;;;;;11.77;2.00;;;18.10;96.60;;;;;;5067695;28;20397;-83
2020/12/30 10:36:55;;;;;;;9.02;1.50;;;18.20;96.60;;;;;;5065082;28;20402;-83
2020/12/30 10:39:22;;;;;;;10.70;2.13;;;18.10;96.60;;;;;;5060154;28;20465;-83
2020/12/30 10:41:54;;;;;;;10.32;1.52;;;18.10;96.60;;;;;;5065154;28;20399;-82
2020/12/30 10:44:22;;;;;;;8.30;1.30;;;18.10;96.70;;;;;;5049711;28;20400;-83
2020/12/30 10:46:50;;;;;;;13.57;1.88;;;18.10;96.70;;;;;;5060492;28;20385;-83
2020/12/30 10:49:17;;;;;;;13.15;1.73;;;18.10;96.80;;;;;;5068816;28;20793;-82
2020/12/30 10:51:48;;;;;;;13.80;2.30;;;18.10;96.90;;;;;;5081127;28;20387;-83
2020/12/30 10:54:20;;;;;;;8.98;1.70;;;18.20;96.90;;;;;;5068537;28;20765;-83
2020/12/30 10:56:51;;;;;;;10.05;1.70;;;18.20;97.10;;;;;;5068260;28;20460;-82
2020/12/30 10:59:19;;;;;;;10.38;1.50;;;18.20;97.30;;;;;;5060833;28;20398;-83
2020/12/30 11:01:50;;;;;;;11.23;1.70;;;18.20;97.20;;;;;;5067783;28;20433;-82
2020/12/30 11:04:18;;;;;;;8.63;1.60;;;18.20;97.20;;;;;;5067719;28;21834;-82
2020/12/30 11:06:45;;;;;;;12.45;1.73;;;18.20;97.20;;;;;;5068770;28;21567;-82
2020/12/30 11:09:12;;;;;;;11.98;1.70;;;18.10;97.20;;;;;;5068112;28;20467;-82
2020/12/30 11:11:43;;;;;;;10.45;1.60;;;18.20;97.00;;;;;;5068192;28;20378;-82
2020/12/30 11:14:10;;;;;;;15.03;2.57;;;18.20;97.20;;;;;;5067212;28;20867;-81
2020/12/30 11:16:37;;;;;;;8.55;1.58;;;18.10;97.10;;;;;;5067950;28;20496;-82
2020/12/30 11:19:04;;;;;;;11.38;1.92;;;18.10;97.30;;;;;;5067408;28;20405;-83
2020/12/30 11:21:31;;;;;;;15.23;1.70;;;18.00;97.50;;;;;;5067669;28;20881;-83
2020/12/30 11:23:57;;;;;;;10.35;1.67;;;18.00;97.50;;;;;;5049108;28;20757;-83
2020/12/30 11:26:24;;;;;;;10.15;1.58;;;18.10;97.60;;;;;;5067318;28;20402;-83
2020/12/30 11:28:51;;;;;;;9.30;1.70;;;18.10;97.70;;;;;;5067378;28;20471;-83
2020/12/30 11:31:18;;;;;;;12.73;1.83;;;18.10;97.60;;;;;;5067138;28;20394;-83
2020/12/30 11:33:45;;;;;;;11.68;2.00;;;18.00;97.90;;;;;;5068220;28;20382;-84
2020/12/30 11:36:13;;;;;;;12.07;2.03;;;17.90;98.00;;;;;;5068156;28;20985;-84
2020/12/30 11:38:40;;;;;;;13.05;1.83;;;17.90;97.90;;;;;;5066413;28;20401;-84
2020/12/30 11:41:08;;;;;;;11.48;1.67;;;17.90;97.90;;;;;;5066855;28;20397;-84
2020/12/30 11:43:35;;;;;;;9.23;1.50;;;17.90;98.10;;;;;;5066617;28;20931;-84
2020/12/30 11:46:05;;;;;;;12.52;1.67;;;17.90;98.20;;;;;;5067854;28;20447;-84
2020/12/30 11:48:32;;;;;;;12.00;2.10;;;17.90;98.20;;;;;;5064928;28;20520;-84
2020/12/30 11:50:59;;;;;;;9.97;1.70;;;17.80;98.20;;;;;;5063822;28;20390;-84
2020/12/30 11:53:26;;;;;;;13.02;1.92;;;17.90;98.10;;;;;;5067790;28;20401;-84
2020/12/30 11:55:53;;;;;;;11.35;2.00;;;17.80;98.20;;;;;;5065618;28;20399;-83
2020/12/30 11:58:20;;;;;;;10.00;1.48;;;17.90;98.20;;;;;;5065947;28;21226;-83
2020/12/30 12:00:47;;;;;;;7.70;1.33;;;17.80;98.30;;;;;;5067317;28;20382;-83
2020/12/30 12:03:14;;;;;;;11.60;1.60;;;17.80;98.40;;;;;;5067700;28;20417;-82
2020/12/30 12:05:43;;;;;;;14.45;2.30;;;17.80;98.00;;;;;;5066853;28;20383;-82
2020/12/30 12:08:10;;;;;;;11.52;1.92;;;17.90;97.90;;;;;;5066326;28;20912;-83
2020/12/30 12:10:37;;;;;;;12.38;1.92;;;17.90;98.00;;;;;;5067060;28;20386;-83
2020/12/30 12:13:04;;;;;;;11.52;1.45;;;18.00;97.90;;;;;;5066241;28;20392;-84
2020/12/30 12:15:31;;;;;;;11.85;1.85;;;18.00;98.20;;;;;;5066875;28;20370;-83
2020/12/30 12:17:58;;;;;;;13.63;1.67;;;18.00;97.90;;;;;;5065253;28;20398;-84
2020/12/30 12:20:25;;;;;;;10.30;1.75;;;18.00;97.90;;;;;;5065472;28;20449;-83
2020/12/30 12:22:52;;;;;;;9.93;1.50;;;18.00;98.10;;;;;;5066193;28;20442;-84
2020/12/30 12:25:19;;;;;;;9.93;1.80;;;18.00;98.10;;;;;;5064297;28;20394;-84
2020/12/30 12:27:46;;;;;;;14.37;1.80;;;17.90;98.40;;;;;;5059908;28;20570;-83
2020/12/30 12:30:13;;;;;;;13.70;1.80;;;17.90;98.40;;;;;;5065449;28;20393;-85
2020/12/30 12:32:40;;;;;;;15.20;1.98;;;17.80;98.80;;;;;;5067077;28;20378;-85
2020/12/30 12:35:07;;;;;;;12.95;1.90;;;17.70;99.20;;;;;;5054692;28;20394;-85
2020/12/30 12:37:34;;;;;;;15.38;1.58;;;17.70;99.10;;;;;;5065976;28;20402;-84
2020/12/30 12:40:02;;;;;;;11.82;1.75;;;17.80;98.40;;;;;;5063312;28;20402;-85
2020/12/30 12:42:29;;;;;;;13.52;1.92;;;17.90;98.40;;;;;;5060329;28;20439;-84
2020/12/30 12:45:00;;;;;;;9.40;1.67;;;17.90;98.30;;;;;;5061974;28;20787;-84
2020/12/30 12:47:27;;;;;;;14.43;1.75;;;17.90;98.30;;;;;;5061315;28;20462;-85
2020/12/30 12:49:54;;;;;;;12.93;1.90;;;17.90;98.20;;;;;;5058040;28;20764;-83
2020/12/30 12:52:25;;;;;;;7.80;1.70;;;17.90;98.10;;;;;;5065451;28;20415;-86